createdAt,value
2018-04-20T00:01:39.512Z,0
2018-04-20T00:11:54.746Z,0
2018-04-20T00:22:08.471Z,0
2018-04-20T00:32:23.747Z,0
2018-04-20T00:42:37.560Z,0
2018-04-20T00:52:52.850Z,0
2018-04-20T01:03:08.308Z,0
2018-04-20T01:13:22.227Z,0
2018-04-20T01:23:37.589Z,0
2018-04-20T01:33:52.685Z,0
2018-04-20T01:44:08.263Z,0
2018-04-20T01:54:23.627Z,0
2018-04-20T02:04:38.691Z,0
2018-04-20T02:14:53.100Z,0
2018-04-20T02:25:08.606Z,0
2018-04-20T02:35:24.093Z,0
2018-04-20T02:45:39.492Z,0
2018-04-20T02:55:54.323Z,0
2018-04-20T03:06:09.766Z,0
2018-04-20T03:16:23.761Z,0
2018-04-20T03:26:38.820Z,0
2018-04-20T03:36:53.767Z,0
2018-04-20T03:47:09.426Z,0
2018-04-20T03:57:23.494Z,0
2018-04-20T04:07:37.401Z,0
2018-04-20T04:17:52.030Z,5
2018-04-20T04:28:06.296Z,15
2018-04-20T04:38:20.195Z,35
2018-04-20T04:48:34.682Z,55
2018-04-20T04:58:48.446Z,75
2018-04-20T05:09:03.438Z,100
2018-04-20T05:19:17.115Z,125
2018-04-20T05:29:32.379Z,150
2018-04-20T05:39:46.984Z,170
2018-04-20T05:50:01.037Z,190
2018-04-20T06:00:14.790Z,220
2018-04-20T06:10:29.608Z,260
2018-04-20T06:20:45.183Z,305
2018-04-20T06:31:00.032Z,355
2018-04-20T06:41:13.862Z,350
2018-04-20T06:51:27.657Z,420
2018-04-20T07:01:42.115Z,440
2018-04-20T07:11:56.897Z,660
2018-04-20T07:22:11.379Z,780
2018-04-20T07:32:27.174Z,815
2018-04-20T07:42:41.569Z,930
2018-04-20T07:52:55.866Z,970
2018-04-20T08:03:10.158Z,1035
2018-04-20T08:13:24.707Z,1140
2018-04-20T08:23:40.382Z,1160
2018-04-20T08:33:55.127Z,1275
2018-04-20T08:44:09.105Z,1280
2018-04-20T08:54:23.444Z,1200
2018-04-20T09:04:37.660Z,1310
2018-04-20T09:14:52.491Z,1335
2018-04-20T09:25:07.719Z,1440
2018-04-20T09:35:21.635Z,1510
2018-04-20T09:45:37.343Z,1480
2018-04-20T09:55:52.195Z,1595
2018-04-20T10:06:06.418Z,1565
2018-04-20T10:16:21.121Z,1665
2018-04-20T10:26:35.851Z,1625
2018-04-20T10:36:51.404Z,1605
2018-04-20T10:47:07.147Z,1590
2018-04-20T10:57:22.626Z,1440
2018-04-20T11:07:37.516Z,1360
2018-04-20T11:17:52.298Z,1150
2018-04-20T11:28:08.363Z,1110
2018-04-20T11:38:23.401Z,1250
2018-04-20T11:48:38.464Z,2195
2018-04-20T11:58:52.998Z,1895
2018-04-20T12:09:08.153Z,1835
2018-04-20T12:19:23.384Z,1905
2018-04-20T12:29:38.129Z,1880
2018-04-20T12:39:53.125Z,1700
2018-04-20T12:50:07.532Z,1835
2018-04-20T13:00:21.950Z,1865
2018-04-20T13:10:36.004Z,1800
2018-04-20T13:20:51.155Z,1795
2018-04-20T13:31:06.927Z,1620
2018-04-20T13:41:21.117Z,1565
2018-04-20T13:51:35.173Z,1550
2018-04-20T14:01:50.617Z,1515
2018-04-20T14:12:04.716Z,1460
2018-04-20T14:22:19.373Z,1460
2018-04-20T14:32:34.378Z,1380
2018-04-20T14:42:49.012Z,1340
2018-04-20T14:53:03.320Z,1295
2018-04-20T15:03:17.723Z,1185
2018-04-20T15:13:32.348Z,1050
2018-04-20T15:23:48.057Z,1085
2018-04-20T15:34:01.965Z,925
2018-04-20T15:44:17.474Z,895
2018-04-20T15:54:33.194Z,810
2018-04-20T16:04:48.565Z,760
2018-04-20T16:15:03.301Z,660
2018-04-20T16:25:18.316Z,525
2018-04-20T16:35:33.639Z,540
2018-04-20T16:45:48.085Z,525
2018-04-20T16:56:02.337Z,385
2018-04-20T17:06:16.128Z,360
2018-04-20T17:16:30.713Z,270
2018-04-20T17:26:44.776Z,205
2018-04-20T17:37:00.713Z,160
2018-04-20T17:47:15.281Z,110
2018-04-20T17:57:30.525Z,85
2018-04-20T18:07:44.391Z,60
2018-04-20T18:18:00.088Z,40
2018-04-20T18:28:15.006Z,20
2018-04-20T18:38:29.281Z,10
2018-04-20T18:48:45.000Z,0
2018-04-20T18:59:00.632Z,0
2018-04-20T19:09:14.155Z,0
2018-04-20T19:19:28.517Z,0
2018-04-20T19:29:42.653Z,0
2018-04-20T19:39:56.103Z,0
2018-04-20T19:50:10.890Z,0
2018-04-20T20:00:25.528Z,0
2018-04-20T20:10:39.727Z,0
2018-04-20T20:20:53.713Z,0
2018-04-20T20:31:08.931Z,0
2018-04-20T20:41:22.741Z,0
2018-04-20T20:51:37.304Z,0
2018-04-20T21:01:51.109Z,0
2018-04-20T21:12:06.200Z,0
2018-04-20T21:22:21.470Z,0
2018-04-20T21:32:35.683Z,0
2018-04-20T21:42:51.111Z,0
2018-04-20T21:53:06.409Z,0
2018-04-20T22:03:21.325Z,0
2018-04-20T22:13:35.091Z,0
2018-04-20T22:23:49.450Z,0
2018-04-20T22:34:02.832Z,0
2018-04-20T22:44:17.026Z,0
2018-04-20T22:54:30.859Z,0
2018-04-20T23:04:46.609Z,0
2018-04-20T23:15:01.421Z,0
2018-04-20T23:25:15.465Z,0
2018-04-20T23:35:29.256Z,0
2018-04-20T23:45:43.797Z,0
2018-04-20T23:55:58.947Z,0
